This is the latest recevied weather packets stored in our database for station/object OE5OVL-13. If no packets are shown the sender has not sent any weather packets the latest 10 day(s).
| Time | Temp. | Humidity | Pressure | Rain* | Wind** | Luminosity | Snow |
|---|---|---|---|---|---|---|---|
| 1777260235 | 6.67° C | 64% | 713.4 hPa | 0 mm | - | - | - |
| 1777259324 | 6.67° C | 64% | 713.4 hPa | 0 mm | - | - | - |
| 1777258412 | 6.67° C | 62% | 713.6 hPa | 0 mm | - | - | - |
| 1777257500 | 6.67° C | 62% | 713.8 hPa | 0 mm | - | - | - |
| 1777256588 | 7.22° C | 61% | 714.1 hPa | 0 mm | - | - | - |
| 1777255677 | 7.22° C | 59% | 714.4 hPa | 0 mm | - | - | - |
| 1777254765 | 7.78° C | 59% | 714.8 hPa | 0 mm | - | - | - |
| 1777253853 | 7.78° C | 57% | 715.1 hPa | 0 mm | - | - | - |
| 1777252941 | 7.78° C | 58% | 715.2 hPa | 0 mm | - | - | - |
| 1777252029 | 8.33° C | 57% | 715.3 hPa | 0 mm | - | - | - |
| 1777251118 | 8.33° C | 56% | 715.7 hPa | 0 mm | - | - | - |
| 1777250206 | 8.89° C | 54% | 716.2 hPa | 0 mm | - | - | - |
| 1777249294 | 9.44° C | 52% | 716.8 hPa | 0 mm | - | - | - |
| 1777248383 | 10° C | 49% | 717.7 hPa | 0 mm | - | - | - |
| 1777247471 | 11.11° C | 46% | 718.5 hPa | 0 mm | - | - | - |
| 1777246559 | 11.11° C | 45% | 718.7 hPa | 0 mm | - | - | - |
| 1777245647 | 11.11° C | 47% | 718.5 hPa | 0 mm | - | - | - |
| 1777244736 | 11.11° C | 47% | 718.8 hPa | 0 mm | - | - | - |
| 1777243824 | 11.67° C | 46% | 719.1 hPa | 0 mm | - | - | - |
| 1777242912 | 11.11° C | 46% | 719 hPa | 0 mm | - | - | - |
| 1777242000 | 11.67° C | 44% | 719.5 hPa | 0 mm | - | - | - |
| 1777241089 | 12.22° C | 43% | 719.8 hPa | 0 mm | - | - | - |
| 1777240177 | 12.78° C | 42% | 720.4 hPa | 0 mm | - | - | - |
| 1777239265 | 13.33° C | 41% | 721 hPa | 0 mm | - | - | - |
| 1777238353 | 13.89° C | 39% | 722 hPa | 0 mm | - | - | - |
* Rain latest hour (hover to see other rain measurements)
** Current wind speed in m/s (hover to see current wind gust speed)